Résultats

ODYSSEE MASSALIA : 5.2km bi palmes. Édition 2018.

5.2 Km
16/09/2018 à 08:45:00 - Marseille (13)
83 arrivant(e)s.





Place▲ Temps Dossard Nom Prenom Categ #Categ Sexe #Sexe Club Vit Moy Diplôme Partager
1 01:01:37 145 CAIAZZO CHRISTOPHE 5BM 1 M 1 5.06
2 01:01:47 185 JACOB ADAM 5BM 2 M 2 5.05
3 01:06:08 206 SENTIS THOMAS 5BM 3 M 3 SNC 4.72
4 01:06:08 179 LEMAIRE GAEL 5BM 4 M 4 4.72
5 01:06:47 410 BECQ EMILIE 5BF 1 F 1 CSAKB 4.67
6 01:09:15 197 PONTIER REGIS 5BM 5 M 5 CAAP 4.51
7 01:10:57 182 LUCIANI PHILIPPE 5BM 6 M 6 COTE BLEUE PASSION 4.40
8 01:11:00 165 FONTAINE THOMAS 5BM 7 M 7 COTE BLEUE PASSION 4.39
9 01:12:41 191 ORSONI JEAN-CHRISTOPHE 5BM 8 M 8 4.29
10 01:13:24 155 DERKENNE RENAUD 5BM 9 M 9 4.25
11 01:13:43 217 WALCZAK DELPHINE 5BF 2 F 2 CAAP 4.23
12 01:16:00 211 TAORMINA ALAIN 5BM 10 M 10 USPM 4.11
13 01:16:01 153 COULLET JEAN-PATRICE 5BM 11 M 11 4.10
14 01:16:04 167 FUKARI ERNEST-MICHEL 5BM 12 M 12 4.10
15 01:16:08 207 SERRU LAURENT 5BM 13 M 13 4.10
16 01:16:16 195 PETRETTO ALEXANDRE 5BM 14 M 14 4.09
17 01:17:02 158 DUPUCH ALEXANDRE 5BM 15 M 15 4.05
18 01:17:31 131 AMALOU NADIR 5BM 16 M 16 COTE BLEUE PASSION 4.02
19 01:17:31 177 LE-PORS RACHEL 5BF 3 F 3 COTE BLEUE PASSION 4.02
20 01:18:15 174 HIDOUX PAMELA 5BF 4 F 4 3.99
21 01:18:47 194 PERROUD MATHIEU 5BM 17 M 17 3.96
22 01:19:23 166 FREMONT NATHALIE 5BF 5 F 5 3.93
23 01:19:43 214 VARNIER LAURE 5BF 6 F 6 LES PLAISIRS DE LA MER 3.91
24 01:20:32 218 ZAVARRO ANOUCK 5BF 7 F 7 3.87
25 01:20:35 219 ZAVARRO MARION 5BF 8 F 8 3.87
26 01:20:54 140 BELIE PHILIPPE 5BM 18 M 18 ASPTT 3.86
27 01:21:17 162 ESTEVEZ SANDRA 5BF 9 F 9 3.84
28 01:21:19 172 HADJOUT KARIM 5BM 19 M 19 PA 3.84
29 01:21:32 239 N:Anonyme 239 P:Anonyme 239 5BF 10 F 10 CLUB MASSILIA TRIATHLON 3.83
30 01:22:10 180 LEMAN GUILLAUME 5BM 20 M 20 3.80
31 01:22:21 171 GUILLEMOT FRANCOIS 5BM 21 M 21 THE HUM HUM TEAM-THHT 3.79
32 01:22:26 189 NADEAU PIERRE-YVES 5BM 22 M 22 PAN 3.78
33 01:22:51 141 BERNARDINI MARTINE 5BF 11 F 11 ASPTT 3.77
34 01:23:33 209 SOULAT OLIVIER 5BM 23 M 23 3.73
35 01:23:49 216 VERDELHAN DENIS 5BM 24 M 24 3.72
36 01:23:56 161 ERLET LOUANN 5BF 12 F 12 CDM 3.72
37 01:24:04 150 CONEJERO SEBASTIEN 5BM 25 M 25 LE POULPE 3.71
38 01:24:09 168 GABRIEL PAUL 5BM 26 M 26 COTE BLEUE PASSION 3.71
39 01:25:02 190 NAUDY FLAVIEN 5BM 27 M 27 FOULEE DE GREASQUE 3.67
40 01:25:51 147 CASTANET CEDRIC 5BM 28 M 28 PDLM 3.63
41 01:25:51 205 SEMIN ERIC 5BM 29 M 29 LE POULPE 3.63
42 01:26:00 196 POLVANI PATRICK 5BM 30 M 30 3.63
43 01:26:08 137 BAUD CLAUDE 5BM 31 M 31 3.62
44 01:26:14 186 MAZEAS LUC 5BM 32 M 32 3.62
45 01:26:19 159 DURAND REMI 5BM 33 M 33 3.61
46 01:26:33 188 MINGAM CAROLE 5BF 13 F 13 3.60
47 01:27:32 202 ROCHE NATHALIE 5BF 14 F 14 CSPCG 13 3.56
48 01:27:37 143 BONNEMAISON NICOLAS 5BM 34 M 34 3.56
49 01:27:51 164 FERRY MARTINE 5BF 15 F 15 CSMS PLONGEE 3.55
50 01:28:02 129 ALLAIS REMY 5BM 35 M 35 3.54
51 01:28:45 144 BOUSSAID HOURIA 5BF 16 F 16 3.52
52 01:28:58 148 CIZERON GERAUD 5BM 36 M 36 GERAUD CIZERON 3.51
53 01:31:26 163 FEKIACOVA ZUZANA 5BF 17 F 17 PDLM 3.41
54 01:32:05 213 TIRONE PATRICK 5BM 37 M 37 3.39
55 01:32:11 134 AUZENDE ADELINE 5BF 18 F 18 COTE BLEUE PASSION 3.38
56 01:33:19 411 D'ONOFRIO MARIE-NOELLE 5BF 19 F 19 COTE MER 3.34
57 01:33:48 181 LOUVEAU BEATRICE 5BF 20 F 20 COTE BLEUE PASSION 3.33
58 01:34:54 204 SECONDI CAROLINE 5BF 21 F 21 3.29
59 01:35:22 215 VENTURA FRANZ 5BM 38 M 38 3.27
60 01:36:01 203 N:Anonyme 203 P:Anonyme 203 5BF 22 F 22 CSMS SEYNOIS 3.25
61 01:37:06 135 BALESTRA AUDREY 5BF 23 F 23 COTE BLEUE PASSION 3.21
62 01:37:30 156 DESBOS DIANE 5BF 24 F 24 FFN:LYONNATATION 3.20
63 01:37:44 223 HUDE ERIC 5BM 39 M 39 3.19
64 01:37:50 175 JEANROY GUILLAUME 5BM 40 M 40 3.19
65 01:37:55 132 ANDREINI JACQUELINE 5BF 25 F 25 3.19
66 01:37:58 151 COSTE-AZEMA NATHALIE 5BF 26 F 26 3.18
67 01:37:59 142 BONNEMAISON AGATHE 5BF 27 F 27 3.18
68 01:38:20 138 BAUDELET CHRISTOPHE 5BM 41 M 41 SUBAQUA CLUB DE PARIS 3.17
69 01:38:54 146 CAMEAU CHARLY 5BM 42 M 42 COTE BLEUE PASSION 3.15
70 01:39:09 170 GOBBI CHANTAL 5BF 28 F 28 3.15
71 01:40:40 178 LE-TREQUESSER PIERRE 5BM 43 M 43 3.10
72 01:41:29 210 SURET VIRGINIE 5BF 29 F 29 3.07
73 01:43:54 133 ARMAND DAMIEN 5BM 44 M 44 3.00
74 01:44:00 139 BAYOL ALAIN 5BM 45 M 45 COTE BLEUE PASSION 3.00
75 01:46:43 187 MAZEAS SYLVIE 5BF 30 F 30 2.92
76 01:47:46 212 TEILLER PASCAL 5BM 46 M 46 2.90
77 01:48:03 184 N:Anonyme 184 P:Anonyme 184 5BF 31 F 31 CERCLE DES NAGEURS DE MARSEILLE 2.89
78 01:49:28 176 KELLER PASCALE 5BF 32 F 32 SARDINES TRIATHLON 2.85
79 01:49:48 414 TASSY LOUIS 5BM 47 M 47 2.84
80 01:50:48 149 COLLETTO DELPHINE 5BF 33 F 33 2.82
81 01:52:06 413 RIEMANN ALAIN 5BM 48 M 48 2.78
82 02:00:49 193 PELERIN LOUIS 5BM 49 M 49 SUBAQUA CLUB DE PARIS 2.58
83 02:02:10 173 HARL FRANCOISE 5BF 34 F 34 2.55